createdAt,value
2018-05-03T00:01:19.665Z,10.33
2018-05-03T00:03:53.330Z,7.33
2018-05-03T00:06:26.956Z,11.70
2018-05-03T00:09:00.612Z,9.13
2018-05-03T00:11:34.258Z,11.27
2018-05-03T00:14:08.923Z,10.77
2018-05-03T00:16:42.555Z,8.43
2018-05-03T00:19:16.226Z,6.80
2018-05-03T00:21:50.802Z,9.40
2018-05-03T00:24:24.473Z,8.57
2018-05-03T00:26:58.489Z,8.73
2018-05-03T00:29:34.254Z,8.37
2018-05-03T00:32:08.839Z,9.07
2018-05-03T00:34:43.264Z,7.17
2018-05-03T00:37:16.890Z,7.80
2018-05-03T00:39:50.552Z,8.20
2018-05-03T00:42:25.944Z,9.53
2018-05-03T00:44:59.616Z,7.07
2018-05-03T00:47:33.259Z,8.90
2018-05-03T00:50:06.983Z,9.00
2018-05-03T00:52:40.607Z,7.23
2018-05-03T00:55:14.275Z,6.20
2018-05-03T00:57:47.907Z,7.27
2018-05-03T01:00:21.569Z,9.37
2018-05-03T01:02:55.187Z,7.57
2018-05-03T01:05:28.856Z,7.67
2018-05-03T01:08:03.455Z,6.53
2018-05-03T01:10:37.112Z,9.73
2018-05-03T01:13:12.475Z,9.53
2018-05-03T01:15:46.125Z,7.30
2018-05-03T01:18:35.889Z,9.13
2018-05-03T01:21:09.545Z,9.43
2018-05-03T01:23:44.915Z,8.07
2018-05-03T01:26:19.576Z,7.97
2018-05-03T01:28:53.275Z,7.20
2018-05-03T01:31:28.821Z,7.57
2018-05-03T01:34:02.447Z,8.93
2018-05-03T01:36:36.670Z,10.23
2018-05-03T01:39:11.055Z,9.03
2018-05-03T01:41:44.714Z,11.70
2018-05-03T01:44:18.331Z,11.40
2018-05-03T01:46:52.001Z,11.53
2018-05-03T01:49:25.650Z,11.03
2018-05-03T01:52:00.284Z,11.77
2018-05-03T01:54:34.848Z,8.53
2018-05-03T01:57:08.573Z,7.83
2018-05-03T01:59:42.200Z,10.03
2018-05-03T02:02:16.841Z,10.37
2018-05-03T02:04:50.464Z,8.83
2018-05-03T02:07:25.848Z,9.40
2018-05-03T02:09:59.478Z,7.57
2018-05-03T02:12:33.136Z,11.97
2018-05-03T02:15:08.530Z,10.77
2018-05-03T02:17:42.187Z,12.10
2018-05-03T02:20:16.780Z,12.17
2018-05-03T02:22:50.227Z,9.40
2018-05-03T02:25:23.859Z,11.33
2018-05-03T02:27:59.269Z,10.90
2018-05-03T02:30:32.902Z,15.83
2018-05-03T02:33:07.342Z,10.10
2018-05-03T02:35:40.963Z,9.27
2018-05-03T02:38:14.627Z,11.43
2018-05-03T02:40:49.023Z,11.57
2018-05-03T02:43:22.686Z,16.13
2018-05-03T02:45:56.310Z,13.17
2018-05-03T02:48:29.991Z,15.93
2018-05-03T02:51:03.420Z,11.47
2018-05-03T02:53:37.088Z,10.47
2018-05-03T02:56:10.712Z,9.13
2018-05-03T02:58:55.508Z,8.47
2018-05-03T03:01:46.278Z,11.63
2018-05-03T03:04:36.727Z,12.07
2018-05-03T03:10:52.404Z,15.50
2018-05-03T03:13:58.580Z,12.87
2018-05-03T03:16:48.870Z,17.30
2018-05-03T03:19:34.750Z,15.67
2018-05-03T03:22:25.176Z,11.87
2018-05-03T03:25:19.017Z,12.87
2018-05-03T03:28:20.804Z,11.90
2018-05-03T03:31:11.231Z,12.27
2018-05-03T03:33:56.008Z,14.60
2018-05-03T03:40:14.292Z,12.27
2018-05-03T03:43:05.700Z,14.97
2018-05-03T03:45:40.090Z,14.73
2018-05-03T03:48:13.535Z,11.10
2018-05-03T03:50:47.215Z,11.40
2018-05-03T03:53:22.673Z,12.57
2018-05-03T03:55:56.455Z,12.13
2018-05-03T03:58:30.128Z,15.00
2018-05-03T04:01:04.724Z,14.23
2018-05-03T04:03:39.369Z,15.13
2018-05-03T04:06:13.951Z,14.83
2018-05-03T04:08:48.571Z,14.43
2018-05-03T04:11:22.204Z,13.90
2018-05-03T04:13:55.866Z,14.27
2018-05-03T04:16:30.272Z,15.00
2018-05-03T04:19:16.279Z,12.67
2018-05-03T04:22:02.202Z,11.87
2018-05-03T04:27:42.713Z,16.47
2018-05-03T04:30:16.376Z,17.80
2018-05-03T04:32:51.069Z,12.87
2018-05-03T04:35:25.500Z,12.93
2018-05-03T04:38:00.096Z,17.83
2018-05-03T04:40:35.503Z,18.97
2018-05-03T04:43:09.136Z,16.03
2018-05-03T04:45:42.813Z,14.07
2018-05-03T04:48:16.446Z,14.40
2018-05-03T04:50:50.659Z,22.83
2018-05-03T04:53:25.057Z,13.57
2018-05-03T04:55:58.719Z,16.37
2018-05-03T04:58:32.344Z,14.80
2018-05-03T05:01:06.000Z,13.57
2018-05-03T05:03:39.631Z,11.23
2018-05-03T05:06:14.280Z,15.50
2018-05-03T05:08:48.864Z,10.03
2018-05-03T05:11:22.528Z,11.67
2018-05-03T05:13:56.926Z,11.60
2018-05-03T05:16:30.591Z,11.57
2018-05-03T05:19:05.183Z,11.13
2018-05-03T05:21:38.880Z,13.50
2018-05-03T05:24:13.537Z,11.03
2018-05-03T05:26:47.347Z,11.70
2018-05-03T05:29:21.948Z,14.37
2018-05-03T05:31:55.616Z,12.63
2018-05-03T05:34:29.240Z,13.33
2018-05-03T05:37:02.907Z,10.53
2018-05-03T05:39:36.540Z,11.67
2018-05-03T05:42:10.196Z,9.77
2018-05-03T05:44:43.827Z,10.63
2018-05-03T05:47:18.299Z,11.43
2018-05-03T05:49:51.944Z,7.83
2018-05-03T05:52:26.380Z,8.97
2018-05-03T05:55:00.568Z,7.78
2018-05-03T05:57:34.796Z,6.45
2018-05-03T06:00:08.987Z,8.77
2018-05-03T06:02:44.221Z,6.43
2018-05-03T06:05:18.401Z,8.55
2018-05-03T06:07:53.651Z,7.53
2018-05-03T06:10:27.310Z,6.80
2018-05-03T06:13:02.452Z,9.07
2018-05-03T06:15:36.649Z,6.15
2018-05-03T06:18:10.907Z,6.50
2018-05-03T06:20:45.861Z,7.12
2018-05-03T06:23:20.091Z,7.18
2018-05-03T06:25:54.355Z,7.82
2018-05-03T06:28:29.681Z,6.62
2018-05-03T06:31:03.852Z,8.60
2018-05-03T06:33:38.068Z,8.48
2018-05-03T06:36:11.959Z,8.20
2018-05-03T06:38:46.993Z,8.45
2018-05-03T06:41:22.292Z,7.93
2018-05-03T06:43:56.508Z,8.07
2018-05-03T06:46:30.697Z,10.98
2018-05-03T06:49:04.917Z,9.73
2018-05-03T06:51:39.149Z,8.25
2018-05-03T06:54:15.283Z,9.43
2018-05-03T06:56:49.467Z,8.73
2018-05-03T06:59:23.702Z,9.13
2018-05-03T07:01:57.884Z,11.55
2018-05-03T07:04:32.122Z,11.10
2018-05-03T07:07:06.319Z,9.77
2018-05-03T07:09:40.545Z,9.57
2018-05-03T07:12:15.480Z,9.70
2018-05-03T07:14:49.707Z,12.32
2018-05-03T07:17:23.895Z,11.57
2018-05-03T07:19:58.137Z,12.95
2018-05-03T07:22:32.328Z,12.18
2018-05-03T07:25:07.581Z,11.90
2018-05-03T07:27:41.787Z,12.80
2018-05-03T07:30:17.008Z,14.13
2018-05-03T07:32:52.211Z,11.93
2018-05-03T07:35:26.234Z,12.00
2018-05-03T07:38:00.124Z,13.95
2018-05-03T07:40:36.119Z,16.60
2018-05-03T07:43:13.117Z,14.00
2018-05-03T07:45:58.365Z,17.50
2018-05-03T07:51:36.938Z,18.55
2018-05-03T07:54:21.937Z,14.85
2018-05-03T07:56:56.281Z,15.13
2018-05-03T07:59:31.216Z,16.02
2018-05-03T08:02:06.148Z,16.33
2018-05-03T08:04:49.172Z,14.90
2018-05-03T08:10:16.891Z,14.87
2018-05-03T08:12:54.372Z,14.57
2018-05-03T08:15:37.602Z,14.65
2018-05-03T08:18:32.372Z,17.75
2018-05-03T08:21:21.536Z,19.50
2018-05-03T08:26:51.624Z,13.75
2018-05-03T08:29:39.431Z,17.10
2018-05-03T08:35:24.901Z,17.77
2018-05-03T08:38:10.380Z,16.45
2018-05-03T08:40:59.374Z,17.63
2018-05-03T08:43:50.409Z,18.50
2018-05-03T08:49:25.374Z,18.87
2018-05-03T08:52:02.613Z,16.03
2018-05-03T08:57:33.765Z,16.57
2018-05-03T09:06:03.796Z,11.97
2018-05-03T09:08:46.117Z,12.47
2018-05-03T09:11:32.840Z,11.37
2018-05-03T09:16:55.345Z,10.82
2018-05-03T09:22:20.049Z,8.32
2018-05-03T09:25:02.384Z,9.02
2018-05-03T09:27:46.457Z,12.40
2018-05-03T09:39:01.102Z,10.60
2018-05-03T09:41:43.340Z,7.68
2018-05-03T09:47:28.959Z,9.68
2018-05-03T09:55:45.152Z,14.10
2018-05-03T09:58:45.366Z,12.05
2018-05-03T10:01:24.677Z,8.27
2018-05-03T10:04:11.436Z,9.15
2018-05-03T10:07:00.867Z,10.52
2018-05-03T10:09:57.619Z,53.00
2018-05-03T10:12:41.121Z,9.07
2018-05-03T10:15:15.463Z,13.85
2018-05-03T10:17:49.712Z,8.98
2018-05-03T10:20:23.723Z,7.68
2018-05-03T10:22:57.639Z,8.50
2018-05-03T10:25:31.841Z,6.03
2018-05-03T10:28:06.068Z,10.20
2018-05-03T10:30:40.665Z,8.93
2018-05-03T10:33:14.332Z,9.73
2018-05-03T10:39:02.472Z,10.43
2018-05-03T10:41:57.258Z,6.43
2018-05-03T10:44:40.045Z,11.05
2018-05-03T10:47:17.520Z,5.45
2018-05-03T10:50:09.513Z,8.75
2018-05-03T10:52:54.673Z,8.83
2018-05-03T10:55:45.867Z,8.90
2018-05-03T10:58:20.601Z,7.63
2018-05-03T11:00:55.284Z,6.30
2018-05-03T11:03:28.919Z,4.67
2018-05-03T11:06:02.621Z,7.33
2018-05-03T11:08:36.260Z,12.00
2018-05-03T11:11:10.984Z,3.80
2018-05-03T11:13:45.530Z,5.13
2018-05-03T11:16:19.202Z,4.90
2018-05-03T11:18:52.853Z,6.37
2018-05-03T11:21:28.258Z,6.50
2018-05-03T11:24:01.889Z,4.83
2018-05-03T11:26:36.529Z,6.80
2018-05-03T11:29:10.156Z,9.20
2018-05-03T11:31:44.790Z,5.23
2018-05-03T11:34:19.398Z,6.37
2018-05-03T11:36:52.868Z,6.03
2018-05-03T11:39:26.505Z,6.93
2018-05-03T11:42:01.140Z,10.13
2018-05-03T11:44:34.776Z,5.93
2018-05-03T11:47:09.216Z,6.93
2018-05-03T11:49:43.817Z,6.03
2018-05-03T11:52:18.281Z,4.73
2018-05-03T11:54:51.912Z,5.37
2018-05-03T11:57:25.574Z,7.60
2018-05-03T11:59:59.204Z,4.23
2018-05-03T12:02:32.895Z,3.83
2018-05-03T12:05:06.536Z,5.10
2018-05-03T12:07:40.210Z,8.33
2018-05-03T12:10:13.848Z,6.13
2018-05-03T12:12:48.277Z,6.63
2018-05-03T12:15:21.907Z,6.80
2018-05-03T12:17:56.651Z,6.40
2018-05-03T12:20:31.436Z,6.63
2018-05-03T12:23:06.072Z,5.20
2018-05-03T12:25:39.707Z,6.23
2018-05-03T12:28:14.328Z,7.13
2018-05-03T12:30:47.952Z,6.07
2018-05-03T12:33:21.619Z,7.57
2018-05-03T12:35:55.252Z,7.37
2018-05-03T12:38:28.995Z,7.27
2018-05-03T12:41:03.589Z,5.33
2018-05-03T12:43:39.000Z,5.80
2018-05-03T12:46:12.673Z,11.60
2018-05-03T12:48:46.349Z,1.97
2018-05-03T12:51:21.718Z,4.63
2018-05-03T12:53:55.380Z,5.43
2018-05-03T12:56:29.783Z,5.00
2018-05-03T12:59:03.440Z,3.27
2018-05-03T13:01:37.067Z,5.03
2018-05-03T13:04:10.736Z,4.43
2018-05-03T13:06:44.376Z,6.07
2018-05-03T13:09:18.047Z,4.77
2018-05-03T13:11:52.648Z,6.00
2018-05-03T13:14:26.317Z,4.23
2018-05-03T13:17:00.954Z,6.87
2018-05-03T13:19:35.399Z,3.40
2018-05-03T13:22:10.036Z,5.93
2018-05-03T13:24:44.484Z,12.03
2018-05-03T13:27:19.134Z,3.60
2018-05-03T13:29:53.577Z,8.67
2018-05-03T13:32:28.160Z,5.23
2018-05-03T13:35:03.069Z,8.60
2018-05-03T13:37:36.701Z,6.10
2018-05-03T13:40:11.147Z,14.43
2018-05-03T13:42:45.791Z,5.90
2018-05-03T13:45:20.433Z,5.23
2018-05-03T13:47:55.032Z,5.17
2018-05-03T13:50:29.664Z,4.60
2018-05-03T13:53:03.298Z,7.73
2018-05-03T13:55:36.888Z,4.20
2018-05-03T13:58:10.768Z,6.50
2018-05-03T14:00:46.155Z,7.33
2018-05-03T14:03:19.828Z,3.73
2018-05-03T14:05:53.926Z,18.73
2018-05-03T14:08:27.571Z,9.90
2018-05-03T14:11:01.266Z,4.37
2018-05-03T14:13:34.948Z,5.53
2018-05-03T14:16:08.665Z,3.37
2018-05-03T14:18:42.316Z,5.37
2018-05-03T14:21:16.078Z,6.73
2018-05-03T14:23:54.047Z,6.80
2018-05-03T14:26:28.789Z,5.77
2018-05-03T14:29:02.417Z,11.67
2018-05-03T14:31:36.853Z,9.27
2018-05-03T14:34:10.505Z,5.10
2018-05-03T14:37:08.655Z,3.10
2018-05-03T14:39:47.261Z,16.73
2018-05-03T14:42:20.892Z,4.67
2018-05-03T14:45:07.630Z,5.50
2018-05-03T14:47:42.048Z,6.73
2018-05-03T14:50:19.272Z,4.60
2018-05-03T14:52:53.864Z,7.10
2018-05-03T14:55:28.409Z,6.77
2018-05-03T14:58:03.419Z,5.67
2018-05-03T15:00:38.825Z,4.87
2018-05-03T15:03:13.235Z,7.30
2018-05-03T15:05:46.909Z,7.77
2018-05-03T15:08:20.580Z,6.07
2018-05-03T15:10:56.505Z,5.27
2018-05-03T15:13:37.833Z,5.97
2018-05-03T15:16:14.689Z,5.20
2018-05-03T15:18:58.692Z,8.97
2018-05-03T15:24:23.813Z,6.73
2018-05-03T15:27:08.420Z,5.20
2018-05-03T15:29:42.505Z,8.53
2018-05-03T15:32:17.958Z,4.10
2018-05-03T15:34:52.159Z,8.37
2018-05-03T15:37:25.733Z,5.27
2018-05-03T15:40:00.045Z,4.47
2018-05-03T15:42:34.739Z,6.37
2018-05-03T15:45:09.324Z,6.67
2018-05-03T15:47:43.015Z,5.00
2018-05-03T15:50:17.638Z,7.83
2018-05-03T15:52:52.455Z,6.17
2018-05-03T15:55:26.093Z,5.00
2018-05-03T15:58:06.160Z,7.00
2018-05-03T16:00:40.042Z,10.07
2018-05-03T16:03:14.488Z,6.67
2018-05-03T16:05:48.121Z,7.73
2018-05-03T16:08:21.808Z,10.27
2018-05-03T16:10:57.449Z,5.47
2018-05-03T16:13:31.128Z,5.37
2018-05-03T16:16:06.264Z,8.23
2018-05-03T16:18:41.888Z,4.90
2018-05-03T16:21:15.529Z,5.07
2018-05-03T16:23:50.177Z,5.57
2018-05-03T16:26:23.821Z,5.43
2018-05-03T16:28:58.256Z,6.27
2018-05-03T16:31:31.677Z,5.70
2018-05-03T16:34:05.011Z,7.40
2018-05-03T16:36:39.636Z,10.23
2018-05-03T16:39:13.312Z,10.50
2018-05-03T16:41:46.945Z,4.37
2018-05-03T16:44:20.623Z,7.43
2018-05-03T16:46:54.367Z,6.57
2018-05-03T16:49:28.160Z,3.23
2018-05-03T16:52:02.553Z,4.47
2018-05-03T16:54:36.455Z,4.17
2018-05-03T16:57:11.068Z,7.07
2018-05-03T16:59:44.740Z,3.37
2018-05-03T17:02:18.380Z,4.20
2018-05-03T17:04:53.084Z,7.60
2018-05-03T17:07:26.850Z,6.00
2018-05-03T17:10:02.235Z,6.00
2018-05-03T17:12:36.838Z,2.70
2018-05-03T17:15:11.471Z,6.87
2018-05-03T17:17:44.912Z,4.43
2018-05-03T17:20:18.589Z,3.03
2018-05-03T17:22:52.597Z,5.20
2018-05-03T17:25:27.582Z,4.60
2018-05-03T17:28:01.464Z,2.93
2018-05-03T17:30:36.597Z,3.53
2018-05-03T17:33:13.735Z,3.10
2018-05-03T17:35:51.399Z,6.63
2018-05-03T17:38:28.909Z,3.93
2018-05-03T17:41:13.532Z,3.27
2018-05-03T17:43:47.403Z,4.27
2018-05-03T17:46:21.954Z,3.40
2018-05-03T17:48:55.827Z,3.43
2018-05-03T17:51:29.955Z,1.43
2018-05-03T18:01:36.338Z,4.27
2018-05-03T18:04:09.993Z,3.40
2018-05-03T18:06:44.429Z,4.17
2018-05-03T18:09:18.061Z,2.93
2018-05-03T18:11:52.701Z,2.97
2018-05-03T18:14:26.329Z,2.23
2018-05-03T18:17:00.780Z,1.57
2018-05-03T18:19:34.417Z,5.47
2018-05-03T18:22:08.082Z,3.20
2018-05-03T18:24:41.720Z,3.37
2018-05-03T18:27:15.393Z,3.63
2018-05-03T18:29:48.806Z,2.57
2018-05-03T18:32:22.472Z,6.40
2018-05-03T18:34:56.108Z,2.50
2018-05-03T18:37:29.764Z,4.27
2018-05-03T18:40:03.837Z,2.93
2018-05-03T18:42:37.507Z,3.23
2018-05-03T18:45:11.140Z,3.00
2018-05-03T18:47:45.769Z,3.97
2018-05-03T18:50:20.360Z,8.60
2018-05-03T18:52:54.020Z,7.33
2018-05-03T18:55:28.416Z,3.10
2018-05-03T18:58:03.021Z,3.23
2018-05-03T19:00:36.651Z,2.23
2018-05-03T19:03:24.459Z,7.27
2018-05-03T19:08:50.094Z,3.23
2018-05-03T19:14:19.380Z,4.43
2018-05-03T19:19:59.238Z,3.83
2018-05-03T19:22:36.975Z,4.90
2018-05-03T19:25:10.704Z,3.77
2018-05-03T19:27:45.098Z,2.70
2018-05-03T19:30:18.836Z,2.57
2018-05-03T19:32:52.612Z,6.23
2018-05-03T19:35:27.132Z,3.60
2018-05-03T19:38:01.652Z,5.30
2018-05-03T19:40:35.318Z,4.97
2018-05-03T19:43:08.947Z,9.93
2018-05-03T19:45:42.603Z,5.40
2018-05-03T19:48:16.236Z,13.70
2018-05-03T19:50:50.876Z,9.80
2018-05-03T19:53:24.510Z,7.80
2018-05-03T19:59:14.760Z,15.97
2018-05-03T20:01:58.343Z,4.87
2018-05-03T20:04:32.131Z,7.87
2018-05-03T20:07:07.515Z,5.87
2018-05-03T20:09:41.182Z,7.30
2018-05-03T20:12:16.536Z,9.10
2018-05-03T20:14:58.077Z,5.63
2018-05-03T20:17:31.779Z,9.30
2018-05-03T20:20:05.725Z,7.40
2018-05-03T20:22:39.343Z,4.77
2018-05-03T20:25:13.004Z,8.63
2018-05-03T20:27:46.633Z,7.17
2018-05-03T20:30:20.303Z,4.30
2018-05-03T20:32:54.938Z,5.67
2018-05-03T20:35:29.364Z,2.33
2018-05-03T20:38:03.755Z,5.60
2018-05-03T20:40:37.411Z,10.83
2018-05-03T20:43:11.038Z,3.40
2018-05-03T20:45:44.691Z,6.07
2018-05-03T20:48:22.031Z,3.00
2018-05-03T20:50:58.244Z,4.70
2018-05-03T20:56:10.501Z,5.10
2018-05-03T20:58:44.145Z,7.17
2018-05-03T21:01:18.581Z,7.10
2018-05-03T21:03:52.209Z,6.60
2018-05-03T21:06:25.966Z,6.23
2018-05-03T21:09:00.371Z,5.40
2018-05-03T21:11:33.708Z,5.90
2018-05-03T21:14:08.404Z,4.27
2018-05-03T21:16:42.809Z,6.23
2018-05-03T21:19:18.387Z,5.30
2018-05-03T21:21:52.576Z,4.30
2018-05-03T21:24:27.008Z,7.00
2018-05-03T21:27:01.402Z,15.30
2018-05-03T21:29:36.076Z,9.00
2018-05-03T21:32:09.703Z,8.00
2018-05-03T21:34:44.351Z,7.03
2018-05-03T21:37:17.983Z,6.80
2018-05-03T21:39:52.625Z,8.53
2018-05-03T21:42:26.255Z,7.40
2018-05-03T21:45:00.389Z,5.57
2018-05-03T21:47:34.054Z,5.17
2018-05-03T21:50:07.377Z,3.53
2018-05-03T21:52:40.997Z,8.00
2018-05-03T21:55:15.432Z,3.43
2018-05-03T21:57:50.101Z,5.73
2018-05-03T22:00:29.812Z,5.37
2018-05-03T22:03:05.317Z,8.73
2018-05-03T22:05:39.749Z,3.23
2018-05-03T22:08:14.191Z,4.33
2018-05-03T22:10:47.814Z,7.80
2018-05-03T22:13:21.521Z,4.50
2018-05-03T22:15:55.149Z,4.70
2018-05-03T22:18:28.826Z,4.23
2018-05-03T22:21:02.452Z,2.27
2018-05-03T22:23:36.120Z,5.60
2018-05-03T22:26:09.750Z,6.10
2018-05-03T22:28:43.419Z,2.67
2018-05-03T22:31:18.046Z,2.13
2018-05-03T22:33:52.692Z,3.10
2018-05-03T22:36:26.321Z,5.17
2018-05-03T22:39:01.723Z,4.30
2018-05-03T22:41:45.712Z,5.83
2018-05-03T22:44:21.938Z,7.17
2018-05-03T22:47:05.976Z,7.07
2018-05-03T22:49:46.243Z,4.43
2018-05-03T22:52:24.977Z,4.83
2018-05-03T22:55:14.301Z,4.57
2018-05-03T22:57:49.806Z,3.83
2018-05-03T23:00:25.287Z,4.53
2018-05-03T23:02:58.956Z,3.77
2018-05-03T23:05:32.587Z,3.87
2018-05-03T23:08:12.958Z,4.17
2018-05-03T23:10:46.645Z,6.17
2018-05-03T23:13:21.401Z,7.03
2018-05-03T23:15:55.028Z,8.00
2018-05-03T23:26:59.194Z,4.53
2018-05-03T23:29:43.461Z,3.03
2018-05-03T23:32:17.225Z,3.60
2018-05-03T23:34:50.851Z,3.37
2018-05-03T23:37:37.947Z,3.40
2018-05-03T23:40:27.303Z,2.00
2018-05-03T23:45:55.941Z,6.50
2018-05-03T23:54:21.100Z,2.17
2018-05-03T23:59:44.681Z,4.70
